createdAt,value
2023-03-05T00:01:09.317Z,33.67
2023-03-05T00:03:36.744Z,30.83
2023-03-05T00:06:04.037Z,29.57
2023-03-05T00:08:31.242Z,27.13
2023-03-05T00:11:04.092Z,32.37
2023-03-05T00:13:31.044Z,31.67
2023-03-05T00:15:57.970Z,28.30
2023-03-05T00:18:25.156Z,27.00
2023-03-05T00:20:51.759Z,28.73
2023-03-05T00:23:18.395Z,28.93
2023-03-05T00:25:46.504Z,28.90
2023-03-05T00:28:13.645Z,27.50
2023-03-05T00:30:40.540Z,29.37
2023-03-05T00:33:08.243Z,28.53
2023-03-05T00:35:46.141Z,29.83
2023-03-05T00:38:13.758Z,28.53
2023-03-05T00:40:41.776Z,27.87
2023-03-05T00:43:09.069Z,32.33
2023-03-05T00:45:35.861Z,28.50
2023-03-05T00:48:02.930Z,28.47
2023-03-05T00:50:29.541Z,27.70
2023-03-05T00:52:56.313Z,30.47
2023-03-05T00:55:22.931Z,25.47
2023-03-05T00:57:49.554Z,28.43
2023-03-05T01:00:17.234Z,33.30
2023-03-05T01:02:43.941Z,31.07
2023-03-05T01:05:12.776Z,25.03
2023-03-05T01:07:39.968Z,28.10
2023-03-05T01:10:08.026Z,28.00
2023-03-05T01:12:34.672Z,27.50
2023-03-05T01:15:01.334Z,29.60
2023-03-05T01:17:27.968Z,29.97
2023-03-05T01:19:54.683Z,26.93
2023-03-05T01:22:21.293Z,29.08
2023-03-05T01:24:47.907Z,28.80
2023-03-05T01:27:14.511Z,31.60
2023-03-05T01:29:41.085Z,27.77
2023-03-05T01:32:07.670Z,31.17
2023-03-05T01:34:36.756Z,29.07
2023-03-05T01:37:03.412Z,27.40
2023-03-05T01:39:30.045Z,25.20
2023-03-05T01:41:56.609Z,26.67
2023-03-05T01:44:26.277Z,24.50
2023-03-05T01:46:53.187Z,26.93
2023-03-05T01:49:34.310Z,27.00
2023-03-05T01:52:09.689Z,29.90
2023-03-05T01:54:47.764Z,24.80
2023-03-05T01:57:19.971Z,32.83
2023-03-05T01:59:50.289Z,26.27
2023-03-05T02:02:18.429Z,26.27
2023-03-05T02:04:50.720Z,25.40
2023-03-05T02:07:18.344Z,24.40
2023-03-05T02:09:45.004Z,26.43
2023-03-05T02:12:13.203Z,24.73
2023-03-05T02:14:42.402Z,25.10
2023-03-05T02:17:10.680Z,25.93
2023-03-05T02:19:52.641Z,25.90
2023-03-05T02:22:22.038Z,22.80
2023-03-05T02:24:48.607Z,22.23
2023-03-05T02:27:16.148Z,21.03
2023-03-05T02:29:46.140Z,23.60
2023-03-05T02:32:13.721Z,24.00
2023-03-05T02:34:40.951Z,19.70
2023-03-05T02:37:09.216Z,26.67
2023-03-05T02:39:36.360Z,22.33
2023-03-05T02:42:03.367Z,22.43
2023-03-05T02:44:30.101Z,19.17
2023-03-05T02:46:56.828Z,24.73
2023-03-05T02:49:25.984Z,22.27
2023-03-05T02:51:53.200Z,25.23
2023-03-05T02:54:20.304Z,23.77
2023-03-05T02:56:47.372Z,23.27
2023-03-05T02:59:14.414Z,25.40
2023-03-05T03:01:41.450Z,23.17
2023-03-05T03:04:08.564Z,22.03
2023-03-05T03:06:35.149Z,22.90
2023-03-05T03:09:01.734Z,24.53
2023-03-05T03:11:28.372Z,23.87
2023-03-05T03:13:54.942Z,26.67
2023-03-05T03:16:21.664Z,22.23
2023-03-05T03:18:48.797Z,21.23
2023-03-05T03:21:21.201Z,23.27
2023-03-05T03:23:47.897Z,19.87
2023-03-05T03:26:14.737Z,23.73
2023-03-05T03:28:41.346Z,21.67
2023-03-05T03:31:08.080Z,22.73
2023-03-05T03:33:34.729Z,22.67
2023-03-05T03:36:01.426Z,22.50
2023-03-05T03:38:28.171Z,28.07
2023-03-05T03:40:54.762Z,20.50
2023-03-05T03:43:21.380Z,20.10
2023-03-05T03:45:48.114Z,20.90
2023-03-05T03:48:14.780Z,19.33
2023-03-05T03:50:42.534Z,20.08
2023-03-05T03:53:14.104Z,21.30
2023-03-05T03:55:42.813Z,21.97
2023-03-05T03:58:10.099Z,21.13
2023-03-05T04:00:37.186Z,21.50
2023-03-05T04:03:03.849Z,18.07
2023-03-05T04:05:30.627Z,20.83
2023-03-05T04:07:58.542Z,19.40
2023-03-05T04:10:25.972Z,21.07
2023-03-05T04:12:52.856Z,19.33
2023-03-05T04:15:22.795Z,23.27
2023-03-05T04:17:49.443Z,25.67
2023-03-05T04:20:16.226Z,20.33
2023-03-05T04:22:42.926Z,21.87
2023-03-05T04:25:09.917Z,21.35
2023-03-05T04:27:37.851Z,23.50
2023-03-05T04:30:05.238Z,20.83
2023-03-05T04:32:31.949Z,20.63
2023-03-05T04:34:59.187Z,23.63
2023-03-05T04:37:26.232Z,23.23
2023-03-05T04:39:53.396Z,21.33
2023-03-05T04:42:21.130Z,19.57
2023-03-05T04:44:48.962Z,22.40
2023-03-05T04:47:16.769Z,24.33
2023-03-05T04:49:43.620Z,24.47
2023-03-05T04:52:13.859Z,21.30
2023-03-05T04:54:40.488Z,20.07
2023-03-05T04:57:07.337Z,24.40
2023-03-05T04:59:33.952Z,20.30
2023-03-05T05:02:00.584Z,26.17
2023-03-05T05:04:27.205Z,22.23
2023-03-05T05:06:57.173Z,26.90
2023-03-05T05:09:24.792Z,20.77
2023-03-05T05:11:51.661Z,21.63
2023-03-05T05:14:18.967Z,21.60
2023-03-05T05:16:45.749Z,23.30
2023-03-05T05:19:12.525Z,20.43
2023-03-05T05:21:39.216Z,24.43
2023-03-05T05:24:06.318Z,19.40
2023-03-05T05:26:33.189Z,24.40
2023-03-05T05:28:59.814Z,23.10
2023-03-05T05:31:26.458Z,19.97
2023-03-05T05:33:53.084Z,22.73
2023-03-05T05:36:21.514Z,22.10
2023-03-05T05:38:48.533Z,20.97
2023-03-05T05:41:17.835Z,23.90
2023-03-05T05:43:44.588Z,24.00
2023-03-05T05:46:17.033Z,21.87
2023-03-05T05:48:44.905Z,23.20
2023-03-05T05:51:15.260Z,22.57
2023-03-05T05:53:43.077Z,20.90
2023-03-05T05:56:10.924Z,28.40
2023-03-05T05:58:38.900Z,22.40
2023-03-05T06:01:17.373Z,26.50
2023-03-05T06:03:44.261Z,23.83
2023-03-05T06:06:12.820Z,23.20
2023-03-05T06:08:39.872Z,28.93
2023-03-05T06:11:07.526Z,24.87
2023-03-05T06:13:34.944Z,27.17
2023-03-05T06:16:05.500Z,27.50
2023-03-05T06:18:33.191Z,33.50
2023-03-05T06:21:06.139Z,27.83
2023-03-05T06:23:33.328Z,27.17
2023-03-05T06:26:01.762Z,25.63
2023-03-05T06:28:29.729Z,26.60
2023-03-05T06:31:23.834Z,25.87
2023-03-05T06:33:50.621Z,24.90
2023-03-05T06:36:18.930Z,21.93
2023-03-05T06:38:46.949Z,23.93
2023-03-05T06:41:17.466Z,27.30
2023-03-05T06:43:45.747Z,22.40
2023-03-05T06:46:13.674Z,25.07
2023-03-05T06:48:41.359Z,24.27
2023-03-05T06:51:19.621Z,30.83
2023-03-05T06:53:49.474Z,24.97
2023-03-05T06:56:16.937Z,27.43
2023-03-05T06:58:45.901Z,25.87
2023-03-05T07:01:13.528Z,20.57
2023-03-05T07:03:41.021Z,22.57
2023-03-05T07:06:13.571Z,21.77
2023-03-05T07:08:40.319Z,22.77
2023-03-05T07:11:11.762Z,23.27
2023-03-05T07:13:38.548Z,26.13
2023-03-05T07:16:07.420Z,25.80
2023-03-05T07:18:34.436Z,23.63
2023-03-05T07:21:05.810Z,28.47
2023-03-05T07:23:33.768Z,26.73
2023-03-05T07:26:04.766Z,21.80
2023-03-05T07:28:31.799Z,22.73
2023-03-05T07:31:04.730Z,22.10
2023-03-05T07:33:32.158Z,26.07
2023-03-05T07:35:59.276Z,22.43
2023-03-05T07:38:26.319Z,26.83
2023-03-05T07:40:53.318Z,22.27
2023-03-05T07:43:20.367Z,23.37
2023-03-05T07:45:47.367Z,28.30
2023-03-05T07:48:15.902Z,23.37
2023-03-05T07:50:43.124Z,24.27
2023-03-05T07:53:10.701Z,22.23
2023-03-05T07:55:42.817Z,23.23
2023-03-05T07:58:09.816Z,24.10
2023-03-05T08:00:36.863Z,22.07
2023-03-05T08:03:03.951Z,24.17
2023-03-05T08:05:32.162Z,21.53
2023-03-05T08:07:59.279Z,26.97
2023-03-05T08:10:25.961Z,23.80
2023-03-05T08:12:52.645Z,23.43
2023-03-05T08:15:19.194Z,23.97
2023-03-05T08:17:45.812Z,24.17
2023-03-05T08:20:12.969Z,22.93
2023-03-05T08:22:39.621Z,21.07
2023-03-05T08:25:07.139Z,24.97
2023-03-05T08:27:33.756Z,22.87
2023-03-05T08:30:02.675Z,24.10
2023-03-05T08:32:29.553Z,22.63
2023-03-05T08:34:58.496Z,25.70
2023-03-05T08:37:25.523Z,23.13
2023-03-05T08:39:52.216Z,25.33
2023-03-05T08:42:18.808Z,25.47
2023-03-05T08:44:45.447Z,23.83
2023-03-05T08:47:12.011Z,22.87
2023-03-05T08:49:38.671Z,23.93
2023-03-05T08:52:06.848Z,22.80
2023-03-05T08:54:34.470Z,27.27
2023-03-05T08:57:01.509Z,22.13
2023-03-05T08:59:30.084Z,22.80
2023-03-05T09:02:01.106Z,25.47
2023-03-05T09:04:28.201Z,25.93
2023-03-05T09:06:55.205Z,25.97
2023-03-05T09:09:22.994Z,23.60
2023-03-05T09:11:51.856Z,28.43
2023-03-05T09:14:19.012Z,25.60
2023-03-05T09:16:46.094Z,20.57
2023-03-05T09:19:15.038Z,22.97
2023-03-05T09:21:42.235Z,26.83
2023-03-05T09:24:09.334Z,23.53
2023-03-05T09:26:36.398Z,21.07
2023-03-05T09:29:03.562Z,24.03
2023-03-05T09:31:30.619Z,18.43
2023-03-05T09:33:57.647Z,22.80
2023-03-05T09:36:26.120Z,23.30
2023-03-05T09:38:53.505Z,21.30
2023-03-05T09:41:27.054Z,19.43
2023-03-05T09:43:57.998Z,19.80
2023-03-05T09:46:24.968Z,23.47
2023-03-05T09:48:52.892Z,19.60
2023-03-05T09:51:28.693Z,26.47
2023-03-05T09:53:55.687Z,23.23
2023-03-05T09:56:52.523Z,22.27
2023-03-05T09:59:28.633Z,22.23
2023-03-05T10:02:01.326Z,23.37
2023-03-05T10:04:54.415Z,20.97
2023-03-05T10:07:30.989Z,22.10
2023-03-05T10:10:07.623Z,22.50
2023-03-05T10:12:43.679Z,26.53
2023-03-05T10:15:38.040Z,24.17
2023-03-05T10:18:09.091Z,20.70
2023-03-05T10:20:42.588Z,25.07
2023-03-05T10:23:41.887Z,22.80
2023-03-05T10:26:43.440Z,22.10
2023-03-05T10:29:38.497Z,25.40
2023-03-05T10:32:28.244Z,26.70
2023-03-05T10:35:41.578Z,20.50
2023-03-05T10:39:00.078Z,25.37
2023-03-05T10:42:09.174Z,26.17
2023-03-05T10:45:18.259Z,29.77
2023-03-05T10:48:42.478Z,28.37
2023-03-05T10:52:09.861Z,25.13
2023-03-05T10:55:18.617Z,30.30
2023-03-05T10:57:48.086Z,25.03
2023-03-05T11:00:23.540Z,30.33
2023-03-05T11:02:55.292Z,25.30
2023-03-05T11:05:41.362Z,21.93
2023-03-05T11:08:20.275Z,25.17
2023-03-05T11:10:47.253Z,24.37
2023-03-05T11:13:24.574Z,25.20
2023-03-05T11:16:00.290Z,26.70
2023-03-05T11:18:28.894Z,25.60
2023-03-05T11:21:07.093Z,23.80
2023-03-05T11:23:34.103Z,28.17
2023-03-05T11:26:02.515Z,24.50
2023-03-05T11:28:33.630Z,26.77
2023-03-05T11:31:21.739Z,25.50
2023-03-05T11:33:57.998Z,26.27
2023-03-05T11:36:33.294Z,25.97
2023-03-05T11:39:08.974Z,27.77
2023-03-05T11:41:44.271Z,24.93
2023-03-05T11:44:22.159Z,30.43
2023-03-05T11:46:51.719Z,28.83
2023-03-05T11:49:20.683Z,22.37
2023-03-05T11:51:58.459Z,24.67
2023-03-05T11:54:29.669Z,25.60
2023-03-05T11:56:56.909Z,21.10
2023-03-05T11:59:28.952Z,18.50
2023-03-05T12:01:57.642Z,19.87
2023-03-05T12:04:26.221Z,22.30
2023-03-05T12:06:53.281Z,21.23
2023-03-05T12:09:37.734Z,19.93
2023-03-05T12:12:07.545Z,21.03
2023-03-05T12:14:43.130Z,19.17
2023-03-05T12:17:10.181Z,20.70
2023-03-05T12:19:38.707Z,23.30
2023-03-05T12:22:06.922Z,20.23
2023-03-05T12:24:35.665Z,18.73
2023-03-05T12:27:02.677Z,20.57
2023-03-05T12:29:49.193Z,19.27
2023-03-05T12:32:25.596Z,19.53
2023-03-05T12:34:59.759Z,22.13
2023-03-05T12:37:27.194Z,21.73
2023-03-05T12:40:10.666Z,18.20
2023-03-05T12:42:45.813Z,19.73
2023-03-05T12:45:14.274Z,23.70
2023-03-05T12:47:42.167Z,24.33
2023-03-05T12:50:27.463Z,22.50
2023-03-05T12:53:10.845Z,19.67
2023-03-05T12:55:40.834Z,19.93
2023-03-05T12:58:07.812Z,16.97
2023-03-05T13:00:41.233Z,19.13
2023-03-05T13:03:27.319Z,19.27
2023-03-05T13:05:55.786Z,18.53
2023-03-05T13:08:27.308Z,20.63
2023-03-05T13:11:04.812Z,18.95
2023-03-05T13:13:33.771Z,16.67
2023-03-05T13:16:01.149Z,18.27
2023-03-05T13:18:29.585Z,17.77
2023-03-05T13:21:08.230Z,18.73
2023-03-05T13:23:35.760Z,17.97
2023-03-05T13:26:12.316Z,19.67
2023-03-05T13:28:39.928Z,18.90
2023-03-05T13:31:14.882Z,16.47
2023-03-05T13:33:52.999Z,16.90
2023-03-05T13:36:20.417Z,20.27
2023-03-05T13:38:48.085Z,20.47
2023-03-05T13:41:15.072Z,20.47
2023-03-05T13:43:49.366Z,24.60
2023-03-05T13:46:30.399Z,21.23
2023-03-05T13:48:57.904Z,18.37
2023-03-05T13:51:25.664Z,21.70
2023-03-05T13:53:53.333Z,18.73
2023-03-05T13:56:21.064Z,21.80
2023-03-05T13:58:48.117Z,20.23
2023-03-05T14:01:25.062Z,20.50
2023-03-05T14:03:53.876Z,19.90
2023-03-05T14:06:22.833Z,21.57
2023-03-05T14:08:54.448Z,19.50
2023-03-05T14:11:23.103Z,19.87
2023-03-05T14:13:50.280Z,18.50
2023-03-05T14:16:28.929Z,19.60
2023-03-05T14:18:57.261Z,21.37
2023-03-05T14:21:25.045Z,22.40
2023-03-05T14:23:54.726Z,22.97
2023-03-05T14:26:28.994Z,21.20
2023-03-05T14:28:58.828Z,27.20
2023-03-05T14:31:26.707Z,21.57
2023-03-05T14:33:54.180Z,20.80
2023-03-05T14:36:22.947Z,30.83
2023-03-05T14:38:51.537Z,21.27
2023-03-05T14:41:21.707Z,26.00
2023-03-05T14:43:48.768Z,23.47
2023-03-05T14:46:15.869Z,25.83
2023-03-05T14:48:42.945Z,25.17
2023-03-05T14:51:11.429Z,23.63
2023-03-05T14:54:00.473Z,26.13
2023-03-05T14:56:28.643Z,22.83
2023-03-05T14:58:57.516Z,19.77
2023-03-05T15:01:25.353Z,22.87
2023-03-05T15:03:52.437Z,24.67
2023-03-05T15:06:31.668Z,24.93
2023-03-05T15:09:04.316Z,26.07
2023-03-05T15:11:31.430Z,28.43
2023-03-05T15:13:58.398Z,27.17
2023-03-05T15:16:25.456Z,22.63
2023-03-05T15:18:52.477Z,22.93
2023-03-05T15:21:19.472Z,27.40
2023-03-05T15:23:46.519Z,26.87
2023-03-05T15:26:14.682Z,29.70
2023-03-05T15:28:42.547Z,27.27
2023-03-05T15:31:09.631Z,26.17
2023-03-05T15:33:36.898Z,23.20
2023-03-05T15:36:04.068Z,27.20
2023-03-05T15:38:31.074Z,26.30
2023-03-05T15:41:00.600Z,28.83
2023-03-05T15:43:30.452Z,28.57
2023-03-05T15:45:57.517Z,27.77
2023-03-05T15:48:24.544Z,24.83
2023-03-05T15:50:51.567Z,29.43
2023-03-05T15:53:19.181Z,27.90
2023-03-05T15:55:46.425Z,27.83
2023-03-05T15:58:16.219Z,29.77
2023-03-05T16:00:44.071Z,26.90
2023-03-05T16:03:11.244Z,29.33
2023-03-05T16:05:38.831Z,24.60
2023-03-05T16:08:06.312Z,26.07
2023-03-05T16:10:33.572Z,25.77
2023-03-05T16:13:06.198Z,25.97
2023-03-05T16:15:34.985Z,24.47
2023-03-05T16:18:04.676Z,25.80
2023-03-05T16:20:31.844Z,26.80
2023-03-05T16:22:58.883Z,22.40
2023-03-05T16:25:26.662Z,28.35
2023-03-05T16:27:53.715Z,23.20
2023-03-05T16:30:20.909Z,24.13
2023-03-05T16:32:47.968Z,24.23
2023-03-05T16:35:15.515Z,24.53
2023-03-05T16:37:42.915Z,29.50
2023-03-05T16:40:10.917Z,24.63
2023-03-05T16:42:38.011Z,23.00
2023-03-05T16:45:05.548Z,25.30
2023-03-05T16:47:32.617Z,25.20
2023-03-05T16:50:00.777Z,23.50
2023-03-05T16:52:28.943Z,26.10
2023-03-05T16:54:56.072Z,25.87
2023-03-05T16:57:26.187Z,23.93
2023-03-05T16:59:54.421Z,25.07
2023-03-05T17:02:21.611Z,24.07
2023-03-05T17:04:50.221Z,24.90
2023-03-05T17:07:18.207Z,23.10
2023-03-05T17:09:45.712Z,24.37
2023-03-05T17:12:12.698Z,23.97
2023-03-05T17:14:39.926Z,26.87
2023-03-05T17:17:06.931Z,31.17
2023-03-05T17:19:33.998Z,26.07
2023-03-05T17:22:01.036Z,27.90
2023-03-05T17:24:28.081Z,29.33
2023-03-05T17:26:55.058Z,29.17
2023-03-05T17:29:23.137Z,28.47
2023-03-05T17:31:53.151Z,23.13
2023-03-05T17:34:33.273Z,27.50
2023-03-05T17:37:44.412Z,24.30
2023-03-05T17:40:15.284Z,28.25
2023-03-05T17:42:42.423Z,25.23
2023-03-05T17:45:09.544Z,27.07
2023-03-05T17:47:36.728Z,23.37
2023-03-05T17:50:03.956Z,23.73
2023-03-05T17:52:31.069Z,25.80
2023-03-05T17:54:59.081Z,23.90
2023-03-05T17:57:26.557Z,22.67
2023-03-05T17:59:53.602Z,24.93
2023-03-05T18:02:20.591Z,22.70
2023-03-05T18:04:48.450Z,24.13
2023-03-05T18:07:15.454Z,22.60
2023-03-05T18:09:42.496Z,22.30
2023-03-05T18:12:09.495Z,25.37
2023-03-05T18:14:36.472Z,25.60
2023-03-05T18:17:03.461Z,26.17
2023-03-05T18:19:30.494Z,27.40
2023-03-05T18:21:57.493Z,25.17
2023-03-05T18:24:24.456Z,24.67
2023-03-05T18:26:51.472Z,26.63
2023-03-05T18:29:18.907Z,25.93
2023-03-05T18:31:45.962Z,24.67
2023-03-05T18:34:12.946Z,28.23
2023-03-05T18:36:39.968Z,26.60
2023-03-05T18:39:07.025Z,24.03
2023-03-05T18:41:34.039Z,25.70
2023-03-05T18:44:01.992Z,24.20
2023-03-05T18:46:28.975Z,27.57
2023-03-05T18:48:55.941Z,25.03
2023-03-05T18:51:25.803Z,25.57
2023-03-05T18:53:56.030Z,28.50
2023-03-05T18:56:23.078Z,26.83
2023-03-05T18:58:50.133Z,28.77
2023-03-05T19:01:17.906Z,29.43
2023-03-05T19:03:45.593Z,29.37
2023-03-05T19:06:12.685Z,31.70
2023-03-05T19:08:39.856Z,26.97
2023-03-05T19:11:14.692Z,26.80
2023-03-05T19:13:48.733Z,29.07
2023-03-05T19:16:20.183Z,31.80
2023-03-05T19:18:58.019Z,27.83
2023-03-05T19:21:25.028Z,28.40
2023-03-05T19:23:51.628Z,30.30
2023-03-05T19:26:18.238Z,26.80
2023-03-05T19:28:45.222Z,29.08
2023-03-05T19:31:13.812Z,30.40
2023-03-05T19:33:41.231Z,28.63
2023-03-05T19:36:10.095Z,31.30
2023-03-05T19:38:37.108Z,37.87
2023-03-05T19:41:04.468Z,36.13
2023-03-05T19:43:31.366Z,35.63
2023-03-05T19:46:02.768Z,39.73
2023-03-05T19:48:30.032Z,29.13
2023-03-05T19:50:57.200Z,26.03
2023-03-05T19:53:24.244Z,34.10
2023-03-05T19:55:50.903Z,29.47
2023-03-05T19:58:17.757Z,29.57
2023-03-05T20:00:44.522Z,30.40
2023-03-05T20:03:11.362Z,31.47
2023-03-05T20:05:38.058Z,29.10
2023-03-05T20:08:04.836Z,30.70
2023-03-05T20:10:31.601Z,30.95
2023-03-05T20:12:58.186Z,32.53
2023-03-05T20:15:29.131Z,33.53
2023-03-05T20:17:57.293Z,30.60
2023-03-05T20:20:24.477Z,30.73
2023-03-05T20:22:51.221Z,30.83
2023-03-05T20:25:21.018Z,34.63
2023-03-05T20:27:47.929Z,33.60
2023-03-05T20:30:15.709Z,34.37
2023-03-05T20:32:42.453Z,32.30
2023-03-05T20:35:13.401Z,33.33
2023-03-05T20:37:49.068Z,33.00
2023-03-05T20:40:16.715Z,30.53
2023-03-05T20:42:43.665Z,31.80
2023-03-05T20:45:10.658Z,33.65
2023-03-05T20:47:46.154Z,34.90
2023-03-05T20:50:14.806Z,30.80
2023-03-05T20:52:41.397Z,29.57
2023-03-05T20:55:09.098Z,28.90
2023-03-05T20:57:35.685Z,29.73
2023-03-05T21:00:03.488Z,30.47
2023-03-05T21:02:30.948Z,34.03
2023-03-05T21:04:57.515Z,33.03
2023-03-05T21:07:26.114Z,31.60
2023-03-05T21:09:52.676Z,29.60
2023-03-05T21:12:19.218Z,31.83
2023-03-05T21:14:45.797Z,31.67
2023-03-05T21:17:12.381Z,36.63
2023-03-05T21:19:39.294Z,36.60
2023-03-05T21:22:06.021Z,29.57
2023-03-05T21:24:43.365Z,29.20
2023-03-05T21:27:09.899Z,28.27
2023-03-05T21:29:36.443Z,29.70
2023-03-05T21:32:03.251Z,30.83
2023-03-05T21:34:29.935Z,28.77
2023-03-05T21:36:56.511Z,26.40
2023-03-05T21:39:23.052Z,31.17
2023-03-05T21:41:49.825Z,27.03
2023-03-05T21:44:17.663Z,28.67
2023-03-05T21:46:44.388Z,28.33
2023-03-05T21:49:11.169Z,25.50
2023-03-05T21:51:49.386Z,25.47
2023-03-05T21:54:15.927Z,26.13
2023-03-05T21:56:42.463Z,25.30
2023-03-05T21:59:09.112Z,21.80
2023-03-05T22:01:35.656Z,24.57
2023-03-05T22:04:02.275Z,28.00
2023-03-05T22:06:28.952Z,25.27
2023-03-05T22:08:56.051Z,24.27
2023-03-05T22:11:22.644Z,20.43
2023-03-05T22:13:49.292Z,20.07
2023-03-05T22:16:24.472Z,23.33
2023-03-05T22:18:51.599Z,20.93
2023-03-05T22:21:25.922Z,21.50
2023-03-05T22:23:54.238Z,19.03
2023-03-05T22:26:20.810Z,25.13
2023-03-05T22:28:47.412Z,23.07
2023-03-05T22:31:23.849Z,22.13
2023-03-05T22:33:50.907Z,21.53
2023-03-05T22:36:17.681Z,23.47
2023-03-05T22:38:44.978Z,28.80
2023-03-05T22:41:14.242Z,24.60
2023-03-05T22:43:41.196Z,23.43
2023-03-05T22:46:20.142Z,21.67
2023-03-05T22:48:47.149Z,20.10
2023-03-05T22:51:14.826Z,18.50
2023-03-05T22:53:42.005Z,18.33
2023-03-05T22:56:10.881Z,17.23
2023-03-05T22:58:37.620Z,20.90
2023-03-05T23:01:12.127Z,18.97
2023-03-05T23:03:39.225Z,18.63
2023-03-05T23:06:06.435Z,19.93
2023-03-05T23:08:33.061Z,19.00
2023-03-05T23:11:01.220Z,15.90
2023-03-05T23:13:27.872Z,18.95
2023-03-05T23:15:54.439Z,19.60
2023-03-05T23:18:21.057Z,14.83
2023-03-05T23:20:47.630Z,16.97
2023-03-05T23:23:14.264Z,16.67
2023-03-05T23:25:41.130Z,20.03
2023-03-05T23:28:07.715Z,17.07
2023-03-05T23:30:37.788Z,16.60
2023-03-05T23:33:21.940Z,15.43
2023-03-05T23:35:59.817Z,16.17
2023-03-05T23:38:29.078Z,18.93
2023-03-05T23:41:00.430Z,15.30
2023-03-05T23:43:27.418Z,20.13
2023-03-05T23:45:57.201Z,15.03
2023-03-05T23:48:25.858Z,18.43
2023-03-05T23:50:52.991Z,16.93
2023-03-05T23:53:22.281Z,15.82
2023-03-05T23:55:49.486Z,14.80
2023-03-05T23:58:16.905Z,16.30
